sensor_id;sensor_type;location;lat;lon;timestamp;P1;durP1;ratioP1;P2;durP2;ratioP2
16127;SDS011;8168;49.036;7.690;2024-02-16T00:00:44;13.60;;;6.50;;
16127;SDS011;8168;49.036;7.690;2024-02-16T00:03:16;11.90;;;7.13;;
16127;SDS011;8168;49.036;7.690;2024-02-16T00:05:47;15.63;;;6.97;;
16127;SDS011;8168;49.036;7.690;2024-02-16T00:08:18;13.50;;;7.27;;
16127;SDS011;8168;49.036;7.690;2024-02-16T00:10:49;11.77;;;8.23;;
16127;SDS011;8168;49.036;7.690;2024-02-16T00:13:19;12.67;;;7.90;;
16127;SDS011;8168;49.036;7.690;2024-02-16T00:15:51;14.33;;;7.63;;
16127;SDS011;8168;49.036;7.690;2024-02-16T00:18:21;13.23;;;8.07;;
16127;SDS011;8168;49.036;7.690;2024-02-16T00:20:52;12.57;;;7.30;;
16127;SDS011;8168;49.036;7.690;2024-02-16T00:23:23;13.23;;;7.57;;
16127;SDS011;8168;49.036;7.690;2024-02-16T00:25:55;12.93;;;7.03;;
16127;SDS011;8168;49.036;7.690;2024-02-16T00:28:25;15.00;;;7.23;;
16127;SDS011;8168;49.036;7.690;2024-02-16T00:30:56;11.33;;;7.33;;
16127;SDS011;8168;49.036;7.690;2024-02-16T00:33:27;11.30;;;6.77;;
16127;SDS011;8168;49.036;7.690;2024-02-16T00:35:59;10.77;;;7.07;;
16127;SDS011;8168;49.036;7.690;2024-02-16T00:38:29;10.23;;;6.40;;
16127;SDS011;8168;49.036;7.690;2024-02-16T00:41:00;10.53;;;6.70;;
16127;SDS011;8168;49.036;7.690;2024-02-16T00:43:31;10.73;;;7.10;;
16127;SDS011;8168;49.036;7.690;2024-02-16T00:46:02;8.33;;;6.03;;
16127;SDS011;8168;49.036;7.690;2024-02-16T00:48:33;10.50;;;7.30;;
16127;SDS011;8168;49.036;7.690;2024-02-16T00:51:03;9.87;;;6.37;;
16127;SDS011;8168;49.036;7.690;2024-02-16T00:53:34;8.80;;;5.97;;
16127;SDS011;8168;49.036;7.690;2024-02-16T00:56:05;10.43;;;6.27;;
16127;SDS011;8168;49.036;7.690;2024-02-16T00:58:39;10.00;;;6.20;;
16127;SDS011;8168;49.036;7.690;2024-02-16T01:01:12;14.27;;;5.73;;
16127;SDS011;8168;49.036;7.690;2024-02-16T01:03:44;10.90;;;5.97;;
16127;SDS011;8168;49.036;7.690;2024-02-16T01:06:15;8.00;;;5.90;;
16127;SDS011;8168;49.036;7.690;2024-02-16T01:08:45;12.10;;;6.03;;
16127;SDS011;8168;49.036;7.690;2024-02-16T01:11:16;9.23;;;5.97;;
16127;SDS011;8168;49.036;7.690;2024-02-16T01:13:49;9.40;;;6.53;;
16127;SDS011;8168;49.036;7.690;2024-02-16T01:16:20;10.07;;;6.67;;
16127;SDS011;8168;49.036;7.690;2024-02-16T01:18:50;11.23;;;6.83;;
16127;SDS011;8168;49.036;7.690;2024-02-16T01:21:21;13.20;;;7.90;;
16127;SDS011;8168;49.036;7.690;2024-02-16T01:23:51;15.37;;;8.70;;
16127;SDS011;8168;49.036;7.690;2024-02-16T01:26:22;15.67;;;8.90;;
16127;SDS011;8168;49.036;7.690;2024-02-16T01:28:53;15.30;;;9.07;;
16127;SDS011;8168;49.036;7.690;2024-02-16T01:31:23;13.37;;;7.97;;
16127;SDS011;8168;49.036;7.690;2024-02-16T01:33:54;12.57;;;7.93;;
16127;SDS011;8168;49.036;7.690;2024-02-16T01:36:25;13.47;;;7.70;;
16127;SDS011;8168;49.036;7.690;2024-02-16T01:38:55;13.43;;;8.53;;
16127;SDS011;8168;49.036;7.690;2024-02-16T01:41:26;16.23;;;8.37;;
16127;SDS011;8168;49.036;7.690;2024-02-16T01:43:57;17.57;;;8.30;;
16127;SDS011;8168;49.036;7.690;2024-02-16T01:46:29;18.07;;;8.33;;
16127;SDS011;8168;49.036;7.690;2024-02-16T01:49:00;14.43;;;7.97;;
16127;SDS011;8168;49.036;7.690;2024-02-16T01:51:31;12.70;;;7.40;;
16127;SDS011;8168;49.036;7.690;2024-02-16T01:54:03;12.47;;;7.30;;
16127;SDS011;8168;49.036;7.690;2024-02-16T01:56:34;14.77;;;6.30;;
16127;SDS011;8168;49.036;7.690;2024-02-16T01:59:04;12.53;;;7.17;;
16127;SDS011;8168;49.036;7.690;2024-02-16T02:01:35;8.60;;;5.87;;
16127;SDS011;8168;49.036;7.690;2024-02-16T02:04:06;11.57;;;6.73;;
16127;SDS011;8168;49.036;7.690;2024-02-16T02:06:37;11.83;;;6.70;;
16127;SDS011;8168;49.036;7.690;2024-02-16T02:09:08;10.80;;;6.40;;
16127;SDS011;8168;49.036;7.690;2024-02-16T02:11:39;8.20;;;5.77;;
16127;SDS011;8168;49.036;7.690;2024-02-16T02:14:09;12.13;;;5.70;;
16127;SDS011;8168;49.036;7.690;2024-02-16T02:16:40;9.03;;;6.03;;
16127;SDS011;8168;49.036;7.690;2024-02-16T02:19:11;11.93;;;6.70;;
16127;SDS011;8168;49.036;7.690;2024-02-16T02:21:41;10.23;;;6.10;;
16127;SDS011;8168;49.036;7.690;2024-02-16T02:24:12;7.53;;;5.30;;
16127;SDS011;8168;49.036;7.690;2024-02-16T02:26:43;9.77;;;6.27;;
16127;SDS011;8168;49.036;7.690;2024-02-16T02:29:13;10.83;;;6.53;;
16127;SDS011;8168;49.036;7.690;2024-02-16T02:31:44;10.87;;;6.70;;
16127;SDS011;8168;49.036;7.690;2024-02-16T02:34:15;8.27;;;5.43;;
16127;SDS011;8168;49.036;7.690;2024-02-16T02:36:45;10.77;;;6.37;;
16127;SDS011;8168;49.036;7.690;2024-02-16T02:39:16;7.90;;;5.17;;
16127;SDS011;8168;49.036;7.690;2024-02-16T02:41:47;6.93;;;4.50;;
16127;SDS011;8168;49.036;7.690;2024-02-16T02:44:18;7.07;;;5.00;;
16127;SDS011;8168;49.036;7.690;2024-02-16T02:46:51;8.10;;;4.63;;
16127;SDS011;8168;49.036;7.690;2024-02-16T02:49:23;5.67;;;4.23;;
16127;SDS011;8168;49.036;7.690;2024-02-16T02:51:53;6.53;;;4.87;;
16127;SDS011;8168;49.036;7.690;2024-02-16T02:54:24;8.40;;;4.90;;
16127;SDS011;8168;49.036;7.690;2024-02-16T02:56:54;6.80;;;5.27;;
16127;SDS011;8168;49.036;7.690;2024-02-16T02:59:25;7.10;;;4.87;;
16127;SDS011;8168;49.036;7.690;2024-02-16T03:01:56;8.50;;;4.77;;
16127;SDS011;8168;49.036;7.690;2024-02-16T03:04:26;8.87;;;4.30;;
16127;SDS011;8168;49.036;7.690;2024-02-16T03:06:57;7.30;;;4.70;;
16127;SDS011;8168;49.036;7.690;2024-02-16T03:09:28;9.23;;;4.97;;
16127;SDS011;8168;49.036;7.690;2024-02-16T03:11:58;7.67;;;5.30;;
16127;SDS011;8168;49.036;7.690;2024-02-16T03:14:29;6.60;;;4.63;;
16127;SDS011;8168;49.036;7.690;2024-02-16T03:16:59;7.03;;;4.27;;
16127;SDS011;8168;49.036;7.690;2024-02-16T03:19:30;8.97;;;4.23;;
16127;SDS011;8168;49.036;7.690;2024-02-16T03:22:01;10.53;;;4.50;;
16127;SDS011;8168;49.036;7.690;2024-02-16T03:24:33;7.23;;;4.50;;
16127;SDS011;8168;49.036;7.690;2024-02-16T03:27:03;6.90;;;4.60;;
16127;SDS011;8168;49.036;7.690;2024-02-16T03:29:35;7.23;;;5.17;;
16127;SDS011;8168;49.036;7.690;2024-02-16T03:32:06;5.67;;;4.73;;
16127;SDS011;8168;49.036;7.690;2024-02-16T03:34:36;7.30;;;4.23;;
16127;SDS011;8168;49.036;7.690;2024-02-16T03:37:07;5.03;;;3.60;;
16127;SDS011;8168;49.036;7.690;2024-02-16T03:39:39;6.97;;;4.80;;
16127;SDS011;8168;49.036;7.690;2024-02-16T03:42:10;11.10;;;4.37;;
16127;SDS011;8168;49.036;7.690;2024-02-16T03:44:40;6.83;;;5.10;;
16127;SDS011;8168;49.036;7.690;2024-02-16T03:47:11;7.50;;;4.40;;
16127;SDS011;8168;49.036;7.690;2024-02-16T03:49:42;6.97;;;5.20;;
16127;SDS011;8168;49.036;7.690;2024-02-16T03:52:13;5.93;;;4.97;;
16127;SDS011;8168;49.036;7.690;2024-02-16T03:54:44;7.60;;;5.27;;
16127;SDS011;8168;49.036;7.690;2024-02-16T03:57:18;7.03;;;4.97;;
16127;SDS011;8168;49.036;7.690;2024-02-16T03:59:48;11.33;;;5.00;;
16127;SDS011;8168;49.036;7.690;2024-02-16T04:02:19;9.87;;;5.40;;
16127;SDS011;8168;49.036;7.690;2024-02-16T04:04:50;6.57;;;4.30;;
16127;SDS011;8168;49.036;7.690;2024-02-16T04:07:20;9.57;;;4.67;;
16127;SDS011;8168;49.036;7.690;2024-02-16T04:09:51;8.23;;;5.67;;
16127;SDS011;8168;49.036;7.690;2024-02-16T04:12:21;10.83;;;4.70;;
16127;SDS011;8168;49.036;7.690;2024-02-16T04:14:52;9.00;;;4.10;;
16127;SDS011;8168;49.036;7.690;2024-02-16T04:17:23;7.47;;;4.73;;
16127;SDS011;8168;49.036;7.690;2024-02-16T04:19:53;6.03;;;4.50;;
16127;SDS011;8168;49.036;7.690;2024-02-16T04:22:24;6.93;;;4.60;;
16127;SDS011;8168;49.036;7.690;2024-02-16T04:24:54;9.80;;;4.43;;
16127;SDS011;8168;49.036;7.690;2024-02-16T04:27:25;7.23;;;4.87;;
16127;SDS011;8168;49.036;7.690;2024-02-16T04:29:56;9.03;;;4.73;;
16127;SDS011;8168;49.036;7.690;2024-02-16T04:32:27;6.93;;;4.20;;
16127;SDS011;8168;49.036;7.690;2024-02-16T04:34:58;5.63;;;4.37;;
16127;SDS011;8168;49.036;7.690;2024-02-16T04:37:28;5.77;;;4.53;;
16127;SDS011;8168;49.036;7.690;2024-02-16T04:39:59;7.30;;;4.87;;
16127;SDS011;8168;49.036;7.690;2024-02-16T04:42:30;8.43;;;5.10;;
16127;SDS011;8168;49.036;7.690;2024-02-16T04:45:01;10.67;;;4.77;;
16127;SDS011;8168;49.036;7.690;2024-02-16T04:47:33;9.13;;;4.73;;
16127;SDS011;8168;49.036;7.690;2024-02-16T04:50:03;8.83;;;5.20;;
16127;SDS011;8168;49.036;7.690;2024-02-16T04:52:36;9.60;;;4.70;;
16127;SDS011;8168;49.036;7.690;2024-02-16T04:55:08;6.90;;;4.07;;
16127;SDS011;8168;49.036;7.690;2024-02-16T04:57:38;5.23;;;3.60;;
16127;SDS011;8168;49.036;7.690;2024-02-16T05:00:09;5.63;;;4.20;;
16127;SDS011;8168;49.036;7.690;2024-02-16T05:02:40;8.00;;;4.07;;
16127;SDS011;8168;49.036;7.690;2024-02-16T05:05:11;5.87;;;4.03;;
16127;SDS011;8168;49.036;7.690;2024-02-16T05:07:42;5.87;;;4.10;;
16127;SDS011;8168;49.036;7.690;2024-02-16T05:10:13;5.70;;;3.60;;
16127;SDS011;8168;49.036;7.690;2024-02-16T05:12:46;8.33;;;4.80;;
16127;SDS011;8168;49.036;7.690;2024-02-16T05:15:17;7.13;;;4.90;;
16127;SDS011;8168;49.036;7.690;2024-02-16T05:17:47;7.23;;;4.50;;
16127;SDS011;8168;49.036;7.690;2024-02-16T05:20:19;6.70;;;4.60;;
16127;SDS011;8168;49.036;7.690;2024-02-16T05:22:49;5.27;;;4.00;;
16127;SDS011;8168;49.036;7.690;2024-02-16T05:25:20;8.57;;;4.10;;
16127;SDS011;8168;49.036;7.690;2024-02-16T05:27:51;4.13;;;3.40;;
16127;SDS011;8168;49.036;7.690;2024-02-16T05:30:21;6.90;;;3.57;;
16127;SDS011;8168;49.036;7.690;2024-02-16T05:32:52;10.17;;;4.63;;
16127;SDS011;8168;49.036;7.690;2024-02-16T05:35:23;8.53;;;4.20;;
16127;SDS011;8168;49.036;7.690;2024-02-16T05:37:57;6.87;;;3.50;;
16127;SDS011;8168;49.036;7.690;2024-02-16T05:40:28;4.90;;;3.50;;
16127;SDS011;8168;49.036;7.690;2024-02-16T05:43:00;5.27;;;3.93;;
16127;SDS011;8168;49.036;7.690;2024-02-16T05:45:30;5.30;;;3.90;;
16127;SDS011;8168;49.036;7.690;2024-02-16T05:48:01;5.53;;;3.73;;
16127;SDS011;8168;49.036;7.690;2024-02-16T05:50:32;4.67;;;3.90;;
16127;SDS011;8168;49.036;7.690;2024-02-16T05:53:02;6.00;;;3.57;;
16127;SDS011;8168;49.036;7.690;2024-02-16T05:55:33;4.97;;;3.53;;
16127;SDS011;8168;49.036;7.690;2024-02-16T05:58:04;8.17;;;4.10;;
16127;SDS011;8168;49.036;7.690;2024-02-16T06:00:35;4.90;;;3.83;;
16127;SDS011;8168;49.036;7.690;2024-02-16T06:03:06;5.03;;;3.47;;
16127;SDS011;8168;49.036;7.690;2024-02-16T06:05:37;9.17;;;3.27;;
16127;SDS011;8168;49.036;7.690;2024-02-16T06:08:09;5.03;;;3.60;;
16127;SDS011;8168;49.036;7.690;2024-02-16T06:10:40;4.20;;;3.30;;
16127;SDS011;8168;49.036;7.690;2024-02-16T06:13:11;4.13;;;2.50;;
16127;SDS011;8168;49.036;7.690;2024-02-16T06:15:42;4.17;;;3.20;;
16127;SDS011;8168;49.036;7.690;2024-02-16T06:18:13;4.53;;;3.37;;
16127;SDS011;8168;49.036;7.690;2024-02-16T06:20:43;7.10;;;3.70;;
16127;SDS011;8168;49.036;7.690;2024-02-16T06:23:15;6.03;;;4.23;;
16127;SDS011;8168;49.036;7.690;2024-02-16T06:25:47;9.77;;;4.90;;
16127;SDS011;8168;49.036;7.690;2024-02-16T06:28:18;10.47;;;5.27;;
16127;SDS011;8168;49.036;7.690;2024-02-16T06:30:48;9.73;;;5.63;;
16127;SDS011;8168;49.036;7.690;2024-02-16T06:33:19;9.20;;;5.13;;
16127;SDS011;8168;49.036;7.690;2024-02-16T06:35:49;10.10;;;5.03;;
16127;SDS011;8168;49.036;7.690;2024-02-16T06:38:21;6.63;;;4.50;;
16127;SDS011;8168;49.036;7.690;2024-02-16T06:40:52;8.10;;;4.00;;
16127;SDS011;8168;49.036;7.690;2024-02-16T06:43:22;5.37;;;3.83;;
16127;SDS011;8168;49.036;7.690;2024-02-16T06:45:53;7.37;;;5.37;;
16127;SDS011;8168;49.036;7.690;2024-02-16T06:48:26;6.87;;;3.97;;
16127;SDS011;8168;49.036;7.690;2024-02-16T06:50:57;7.33;;;4.77;;
16127;SDS011;8168;49.036;7.690;2024-02-16T06:53:27;5.63;;;4.13;;
16127;SDS011;8168;49.036;7.690;2024-02-16T06:55:58;4.27;;;3.10;;
16127;SDS011;8168;49.036;7.690;2024-02-16T06:58:29;5.00;;;3.53;;
16127;SDS011;8168;49.036;7.690;2024-02-16T07:01:00;6.30;;;3.67;;
16127;SDS011;8168;49.036;7.690;2024-02-16T07:03:33;5.17;;;3.60;;
16127;SDS011;8168;49.036;7.690;2024-02-16T07:06:06;6.53;;;3.90;;
16127;SDS011;8168;49.036;7.690;2024-02-16T07:08:40;19.33;;;9.67;;
16127;SDS011;8168;49.036;7.690;2024-02-16T07:11:11;11.83;;;6.93;;
16127;SDS011;8168;49.036;7.690;2024-02-16T07:13:42;14.30;;;7.60;;
16127;SDS011;8168;49.036;7.690;2024-02-16T07:16:13;12.17;;;5.90;;
16127;SDS011;8168;49.036;7.690;2024-02-16T07:18:44;8.83;;;5.50;;
16127;SDS011;8168;49.036;7.690;2024-02-16T07:21:15;12.80;;;6.03;;
16127;SDS011;8168;49.036;7.690;2024-02-16T07:23:48;8.33;;;4.70;;
16127;SDS011;8168;49.036;7.690;2024-02-16T07:26:21;8.17;;;5.30;;
16127;SDS011;8168;49.036;7.690;2024-02-16T07:28:52;7.50;;;5.07;;
16127;SDS011;8168;49.036;7.690;2024-02-16T07:31:22;7.77;;;4.97;;
16127;SDS011;8168;49.036;7.690;2024-02-16T07:33:53;7.17;;;4.63;;
16127;SDS011;8168;49.036;7.690;2024-02-16T07:36:24;6.30;;;4.53;;
16127;SDS011;8168;49.036;7.690;2024-02-16T07:38:55;8.63;;;5.20;;
16127;SDS011;8168;49.036;7.690;2024-02-16T07:41:26;7.37;;;4.20;;
16127;SDS011;8168;49.036;7.690;2024-02-16T07:43:58;10.27;;;5.17;;
16127;SDS011;8168;49.036;7.690;2024-02-16T07:46:28;11.20;;;4.97;;
16127;SDS011;8168;49.036;7.690;2024-02-16T07:48:59;8.23;;;5.53;;
16127;SDS011;8168;49.036;7.690;2024-02-16T07:51:32;7.13;;;4.97;;
16127;SDS011;8168;49.036;7.690;2024-02-16T07:54:03;11.53;;;7.53;;
16127;SDS011;8168;49.036;7.690;2024-02-16T07:56:34;9.57;;;6.37;;
16127;SDS011;8168;49.036;7.690;2024-02-16T07:59:05;11.50;;;7.47;;
16127;SDS011;8168;49.036;7.690;2024-02-16T08:01:36;13.57;;;9.77;;
16127;SDS011;8168;49.036;7.690;2024-02-16T08:04:07;15.03;;;10.97;;
16127;SDS011;8168;49.036;7.690;2024-02-16T08:06:37;16.30;;;11.50;;
16127;SDS011;8168;49.036;7.690;2024-02-16T08:09:08;16.17;;;10.63;;
16127;SDS011;8168;49.036;7.690;2024-02-16T08:11:39;13.67;;;8.83;;
16127;SDS011;8168;49.036;7.690;2024-02-16T08:14:09;18.93;;;10.03;;
16127;SDS011;8168;49.036;7.690;2024-02-16T08:16:40;12.27;;;9.10;;
16127;SDS011;8168;49.036;7.690;2024-02-16T08:19:11;18.40;;;13.13;;
16127;SDS011;8168;49.036;7.690;2024-02-16T08:21:44;17.93;;;12.30;;
16127;SDS011;8168;49.036;7.690;2024-02-16T08:24:15;21.10;;;13.40;;
16127;SDS011;8168;49.036;7.690;2024-02-16T08:26:46;17.77;;;12.97;;
16127;SDS011;8168;49.036;7.690;2024-02-16T08:29:17;19.60;;;13.33;;
16127;SDS011;8168;49.036;7.690;2024-02-16T08:31:51;18.10;;;12.07;;
16127;SDS011;8168;49.036;7.690;2024-02-16T08:34:22;22.07;;;15.33;;
16127;SDS011;8168;49.036;7.690;2024-02-16T08:36:56;21.57;;;15.47;;
16127;SDS011;8168;49.036;7.690;2024-02-16T08:39:27;25.63;;;17.33;;
16127;SDS011;8168;49.036;7.690;2024-02-16T08:41:58;21.80;;;16.50;;
16127;SDS011;8168;49.036;7.690;2024-02-16T08:44:29;20.33;;;14.90;;
16127;SDS011;8168;49.036;7.690;2024-02-16T08:47:00;11.90;;;9.70;;
16127;SDS011;8168;49.036;7.690;2024-02-16T08:49:31;14.07;;;10.57;;
16127;SDS011;8168;49.036;7.690;2024-02-16T08:52:02;11.53;;;8.20;;
16127;SDS011;8168;49.036;7.690;2024-02-16T08:54:33;13.90;;;7.13;;
16127;SDS011;8168;49.036;7.690;2024-02-16T08:57:04;9.73;;;7.33;;
16127;SDS011;8168;49.036;7.690;2024-02-16T08:59:35;9.37;;;5.80;;
16127;SDS011;8168;49.036;7.690;2024-02-16T09:02:06;7.00;;;5.30;;
16127;SDS011;8168;49.036;7.690;2024-02-16T09:04:37;5.03;;;3.60;;
16127;SDS011;8168;49.036;7.690;2024-02-16T09:07:08;4.53;;;2.73;;
16127;SDS011;8168;49.036;7.690;2024-02-16T09:09:40;3.07;;;2.30;;
16127;SDS011;8168;49.036;7.690;2024-02-16T09:12:11;2.60;;;1.90;;
16127;SDS011;8168;49.036;7.690;2024-02-16T09:14:42;4.47;;;1.77;;
16127;SDS011;8168;49.036;7.690;2024-02-16T09:17:13;3.10;;;2.20;;
16127;SDS011;8168;49.036;7.690;2024-02-16T09:19:44;2.13;;;1.40;;
16127;SDS011;8168;49.036;7.690;2024-02-16T09:22:16;2.83;;;1.63;;
16127;SDS011;8168;49.036;7.690;2024-02-16T09:24:47;2.30;;;1.60;;
16127;SDS011;8168;49.036;7.690;2024-02-16T09:27:18;2.47;;;1.80;;
16127;SDS011;8168;49.036;7.690;2024-02-16T09:29:49;2.97;;;1.60;;
16127;SDS011;8168;49.036;7.690;2024-02-16T09:32:20;5.07;;;1.60;;
16127;SDS011;8168;49.036;7.690;2024-02-16T09:34:51;3.03;;;1.60;;
16127;SDS011;8168;49.036;7.690;2024-02-16T09:37:22;2.27;;;1.40;;
16127;SDS011;8168;49.036;7.690;2024-02-16T09:39:52;4.67;;;1.53;;
16127;SDS011;8168;49.036;7.690;2024-02-16T09:42:24;1.80;;;1.70;;
16127;SDS011;8168;49.036;7.690;2024-02-16T09:44:57;3.13;;;1.40;;
16127;SDS011;8168;49.036;7.690;2024-02-16T09:47:28;2.50;;;1.33;;
16127;SDS011;8168;49.036;7.690;2024-02-16T09:50:03;1.97;;;1.73;;
16127;SDS011;8168;49.036;7.690;2024-02-16T09:52:35;2.77;;;1.40;;
16127;SDS011;8168;49.036;7.690;2024-02-16T09:55:10;2.73;;;1.43;;
16127;SDS011;8168;49.036;7.690;2024-02-16T09:57:43;3.47;;;1.57;;
16127;SDS011;8168;49.036;7.690;2024-02-16T10:00:14;3.53;;;1.67;;
16127;SDS011;8168;49.036;7.690;2024-02-16T10:02:45;2.17;;;1.20;;
16127;SDS011;8168;49.036;7.690;2024-02-16T10:05:17;1.60;;;1.27;;
16127;SDS011;8168;49.036;7.690;2024-02-16T10:07:49;1.40;;;1.30;;
16127;SDS011;8168;49.036;7.690;2024-02-16T10:10:24;3.53;;;2.83;;
16127;SDS011;8168;49.036;7.690;2024-02-16T10:15:35;2.43;;;1.37;;
16127;SDS011;8168;49.036;7.690;2024-02-16T10:18:06;2.50;;;1.20;;
16127;SDS011;8168;49.036;7.690;2024-02-16T10:20:38;2.23;;;1.50;;
16127;SDS011;8168;49.036;7.690;2024-02-16T10:23:09;4.43;;;1.03;;
16127;SDS011;8168;49.036;7.690;2024-02-16T10:25:40;3.40;;;1.33;;
16127;SDS011;8168;49.036;7.690;2024-02-16T10:28:11;1.80;;;1.40;;
16127;SDS011;8168;49.036;7.690;2024-02-16T10:30:44;1.30;;;1.20;;
16127;SDS011;8168;49.036;7.690;2024-02-16T10:33:14;3.00;;;1.27;;
16127;SDS011;8168;49.036;7.690;2024-02-16T10:35:45;2.07;;;1.33;;
16127;SDS011;8168;49.036;7.690;2024-02-16T10:38:17;2.97;;;1.57;;
16127;SDS011;8168;49.036;7.690;2024-02-16T10:40:49;5.77;;;1.70;;
16127;SDS011;8168;49.036;7.690;2024-02-16T10:43:21;3.17;;;1.30;;
16127;SDS011;8168;49.036;7.690;2024-02-16T10:45:52;1.37;;;1.10;;
16127;SDS011;8168;49.036;7.690;2024-02-16T10:48:26;3.83;;;1.40;;
16127;SDS011;8168;49.036;7.690;2024-02-16T10:50:57;3.90;;;1.53;;
16127;SDS011;8168;49.036;7.690;2024-02-16T10:53:28;3.20;;;1.50;;
16127;SDS011;8168;49.036;7.690;2024-02-16T10:56:00;3.20;;;1.50;;
16127;SDS011;8168;49.036;7.690;2024-02-16T10:58:31;1.77;;;1.27;;
16127;SDS011;8168;49.036;7.690;2024-02-16T11:01:09;2.93;;;1.57;;
16127;SDS011;8168;49.036;7.690;2024-02-16T11:03:45;4.07;;;1.50;;
16127;SDS011;8168;49.036;7.690;2024-02-16T11:06:16;2.33;;;1.30;;
16127;SDS011;8168;49.036;7.690;2024-02-16T11:08:48;2.20;;;1.50;;
16127;SDS011;8168;49.036;7.690;2024-02-16T11:11:28;5.10;;;1.30;;
16127;SDS011;8168;49.036;7.690;2024-02-16T11:13:59;2.97;;;1.50;;
16127;SDS011;8168;49.036;7.690;2024-02-16T11:16:30;3.67;;;1.50;;
16127;SDS011;8168;49.036;7.690;2024-02-16T11:19:00;2.87;;;1.77;;
16127;SDS011;8168;49.036;7.690;2024-02-16T11:21:34;3.60;;;1.57;;
16127;SDS011;8168;49.036;7.690;2024-02-16T11:24:07;2.03;;;1.43;;
16127;SDS011;8168;49.036;7.690;2024-02-16T11:26:42;2.07;;;1.30;;
16127;SDS011;8168;49.036;7.690;2024-02-16T11:29:13;2.50;;;1.30;;
16127;SDS011;8168;49.036;7.690;2024-02-16T11:31:44;2.97;;;1.60;;
16127;SDS011;8168;49.036;7.690;2024-02-16T11:34:22;5.03;;;1.80;;
16127;SDS011;8168;49.036;7.690;2024-02-16T11:36:57;3.80;;;1.87;;
16127;SDS011;8168;49.036;7.690;2024-02-16T11:39:28;3.70;;;1.50;;
16127;SDS011;8168;49.036;7.690;2024-02-16T11:42:08;2.03;;;1.50;;
16127;SDS011;8168;49.036;7.690;2024-02-16T11:44:55;1.87;;;1.40;;
16127;SDS011;8168;49.036;7.690;2024-02-16T11:47:25;1.90;;;1.70;;
16127;SDS011;8168;49.036;7.690;2024-02-16T11:50:00;3.60;;;1.80;;
16127;SDS011;8168;49.036;7.690;2024-02-16T11:52:31;1.97;;;1.27;;
16127;SDS011;8168;49.036;7.690;2024-02-16T11:55:03;1.53;;;1.43;;
16127;SDS011;8168;49.036;7.690;2024-02-16T11:57:34;2.40;;;1.30;;
16127;SDS011;8168;49.036;7.690;2024-02-16T12:00:06;4.43;;;1.50;;
16127;SDS011;8168;49.036;7.690;2024-02-16T12:02:38;1.33;;;1.23;;
16127;SDS011;8168;49.036;7.690;2024-02-16T12:05:09;1.00;;;0.73;;
16127;SDS011;8168;49.036;7.690;2024-02-16T12:07:45;1.30;;;1.20;;
16127;SDS011;8168;49.036;7.690;2024-02-16T12:10:16;2.37;;;1.40;;
16127;SDS011;8168;49.036;7.690;2024-02-16T12:12:47;9.80;;;1.60;;
16127;SDS011;8168;49.036;7.690;2024-02-16T12:15:18;2.87;;;1.40;;
16127;SDS011;8168;49.036;7.690;2024-02-16T12:18:00;2.03;;;1.60;;
16127;SDS011;8168;49.036;7.690;2024-02-16T12:20:31;2.10;;;1.50;;
16127;SDS011;8168;49.036;7.690;2024-02-16T12:23:11;3.33;;;1.77;;
16127;SDS011;8168;49.036;7.690;2024-02-16T12:25:42;4.57;;;1.53;;
16127;SDS011;8168;49.036;7.690;2024-02-16T12:28:13;2.13;;;1.30;;
16127;SDS011;8168;49.036;7.690;2024-02-16T12:30:44;2.23;;;1.50;;
16127;SDS011;8168;49.036;7.690;2024-02-16T12:33:15;2.60;;;1.20;;
16127;SDS011;8168;49.036;7.690;2024-02-16T12:35:46;2.57;;;1.30;;
16127;SDS011;8168;49.036;7.690;2024-02-16T12:38:17;1.20;;;1.10;;
16127;SDS011;8168;49.036;7.690;2024-02-16T12:40:49;3.00;;;1.80;;
16127;SDS011;8168;49.036;7.690;2024-02-16T12:43:20;2.43;;;1.97;;
16127;SDS011;8168;49.036;7.690;2024-02-16T12:45:50;3.13;;;1.70;;
16127;SDS011;8168;49.036;7.690;2024-02-16T12:48:21;3.30;;;1.70;;
16127;SDS011;8168;49.036;7.690;2024-02-16T12:50:51;2.13;;;1.50;;
16127;SDS011;8168;49.036;7.690;2024-02-16T12:53:22;3.97;;;1.80;;
16127;SDS011;8168;49.036;7.690;2024-02-16T12:55:54;2.50;;;1.50;;
16127;SDS011;8168;49.036;7.690;2024-02-16T12:58:25;3.53;;;1.20;;
16127;SDS011;8168;49.036;7.690;2024-02-16T13:00:57;2.73;;;1.40;;
16127;SDS011;8168;49.036;7.690;2024-02-16T13:03:28;2.17;;;1.23;;
16127;SDS011;8168;49.036;7.690;2024-02-16T13:05:58;1.47;;;1.27;;
16127;SDS011;8168;49.036;7.690;2024-02-16T13:08:29;2.40;;;1.70;;
16127;SDS011;8168;49.036;7.690;2024-02-16T13:11:01;1.97;;;1.30;;
16127;SDS011;8168;49.036;7.690;2024-02-16T13:13:33;1.93;;;1.50;;
16127;SDS011;8168;49.036;7.690;2024-02-16T13:16:04;4.60;;;1.70;;
16127;SDS011;8168;49.036;7.690;2024-02-16T13:18:35;2.50;;;1.30;;
16127;SDS011;8168;49.036;7.690;2024-02-16T13:21:05;3.50;;;1.23;;
16127;SDS011;8168;49.036;7.690;2024-02-16T13:23:36;3.37;;;2.10;;
16127;SDS011;8168;49.036;7.690;2024-02-16T13:26:06;1.27;;;1.17;;
16127;SDS011;8168;49.036;7.690;2024-02-16T13:28:37;2.77;;;1.57;;
16127;SDS011;8168;49.036;7.690;2024-02-16T13:31:08;2.53;;;1.43;;
16127;SDS011;8168;49.036;7.690;2024-02-16T13:33:41;1.47;;;1.00;;
16127;SDS011;8168;49.036;7.690;2024-02-16T13:36:11;2.30;;;1.50;;
16127;SDS011;8168;49.036;7.690;2024-02-16T13:38:42;3.30;;;1.57;;
16127;SDS011;8168;49.036;7.690;2024-02-16T13:41:13;1.50;;;1.30;;
16127;SDS011;8168;49.036;7.690;2024-02-16T13:43:43;2.00;;;1.30;;
16127;SDS011;8168;49.036;7.690;2024-02-16T13:46:14;2.20;;;1.40;;
16127;SDS011;8168;49.036;7.690;2024-02-16T13:48:45;2.10;;;1.30;;
16127;SDS011;8168;49.036;7.690;2024-02-16T13:51:16;2.67;;;1.57;;
16127;SDS011;8168;49.036;7.690;2024-02-16T13:53:46;3.33;;;1.13;;
16127;SDS011;8168;49.036;7.690;2024-02-16T13:56:17;2.90;;;1.00;;
16127;SDS011;8168;49.036;7.690;2024-02-16T13:58:48;5.40;;;3.70;;
16127;SDS011;8168;49.036;7.690;2024-02-16T14:01:18;3.10;;;1.70;;
16127;SDS011;8168;49.036;7.690;2024-02-16T14:03:49;3.20;;;1.47;;
16127;SDS011;8168;49.036;7.690;2024-02-16T14:06:21;1.43;;;1.30;;
16127;SDS011;8168;49.036;7.690;2024-02-16T14:08:51;1.43;;;1.20;;
16127;SDS011;8168;49.036;7.690;2024-02-16T14:11:23;2.27;;;1.50;;
16127;SDS011;8168;49.036;7.690;2024-02-16T14:13:53;2.40;;;1.40;;
16127;SDS011;8168;49.036;7.690;2024-02-16T14:16:24;4.90;;;1.30;;
16127;SDS011;8168;49.036;7.690;2024-02-16T14:18:55;2.10;;;1.90;;
16127;SDS011;8168;49.036;7.690;2024-02-16T14:21:26;4.50;;;1.50;;
16127;SDS011;8168;49.036;7.690;2024-02-16T14:23:57;1.87;;;1.40;;
16127;SDS011;8168;49.036;7.690;2024-02-16T14:26:27;2.87;;;1.97;;
16127;SDS011;8168;49.036;7.690;2024-02-16T14:28:59;1.40;;;1.30;;
16127;SDS011;8168;49.036;7.690;2024-02-16T14:31:29;1.70;;;1.30;;
16127;SDS011;8168;49.036;7.690;2024-02-16T14:34:00;2.47;;;1.30;;
16127;SDS011;8168;49.036;7.690;2024-02-16T14:36:31;2.17;;;1.80;;
16127;SDS011;8168;49.036;7.690;2024-02-16T14:39:01;2.63;;;1.37;;
16127;SDS011;8168;49.036;7.690;2024-02-16T14:41:32;3.17;;;1.50;;
16127;SDS011;8168;49.036;7.690;2024-02-16T14:44:03;2.63;;;1.40;;
16127;SDS011;8168;49.036;7.690;2024-02-16T14:46:34;1.53;;;1.10;;
16127;SDS011;8168;49.036;7.690;2024-02-16T14:49:05;2.30;;;1.23;;
16127;SDS011;8168;49.036;7.690;2024-02-16T14:51:41;5.40;;;1.60;;
16127;SDS011;8168;49.036;7.690;2024-02-16T14:54:12;2.57;;;1.40;;
16127;SDS011;8168;49.036;7.690;2024-02-16T14:56:43;1.50;;;1.33;;
16127;SDS011;8168;49.036;7.690;2024-02-16T14:59:14;2.47;;;1.07;;
16127;SDS011;8168;49.036;7.690;2024-02-16T15:01:44;2.43;;;1.60;;
16127;SDS011;8168;49.036;7.690;2024-02-16T15:04:15;1.23;;;1.13;;
16127;SDS011;8168;49.036;7.690;2024-02-16T15:06:46;3.03;;;1.50;;
16127;SDS011;8168;49.036;7.690;2024-02-16T15:09:17;2.00;;;1.10;;
16127;SDS011;8168;49.036;7.690;2024-02-16T15:11:47;2.07;;;1.43;;
16127;SDS011;8168;49.036;7.690;2024-02-16T15:14:18;1.40;;;1.30;;
16127;SDS011;8168;49.036;7.690;2024-02-16T15:16:49;3.67;;;1.70;;
16127;SDS011;8168;49.036;7.690;2024-02-16T15:19:19;2.57;;;1.50;;
16127;SDS011;8168;49.036;7.690;2024-02-16T15:21:50;1.43;;;1.30;;
16127;SDS011;8168;49.036;7.690;2024-02-16T15:24:21;2.80;;;1.73;;